sensor_id;sensor_type;location;lat;lon;timestamp;temperature;humidity
21811;DHT22;11067;48.788;9.208;2022-10-31T00:02:20;12.20;99.90
21811;DHT22;11067;48.788;9.208;2022-10-31T00:04:45;12.10;99.90
21811;DHT22;11067;48.788;9.208;2022-10-31T00:07:11;12.10;99.90
21811;DHT22;11067;48.788;9.208;2022-10-31T00:09:36;12.10;99.90
21811;DHT22;11067;48.788;9.208;2022-10-31T00:12:02;12.10;99.90
21811;DHT22;11067;48.788;9.208;2022-10-31T00:14:28;12.10;99.90
21811;DHT22;11067;48.788;9.208;2022-10-31T00:16:53;12.10;99.90
21811;DHT22;11067;48.788;9.208;2022-10-31T00:19:18;12.10;99.90
21811;DHT22;11067;48.788;9.208;2022-10-31T00:21:44;12.10;99.90
21811;DHT22;11067;48.788;9.208;2022-10-31T00:24:10;12.10;99.90
21811;DHT22;11067;48.788;9.208;2022-10-31T00:26:36;12.00;99.90
21811;DHT22;11067;48.788;9.208;2022-10-31T00:29:02;12.00;99.90
21811;DHT22;11067;48.788;9.208;2022-10-31T00:31:28;12.10;99.90
21811;DHT22;11067;48.788;9.208;2022-10-31T00:33:54;12.00;99.90
21811;DHT22;11067;48.788;9.208;2022-10-31T00:36:19;12.00;99.90
21811;DHT22;11067;48.788;9.208;2022-10-31T00:38:46;12.00;99.90
21811;DHT22;11067;48.788;9.208;2022-10-31T00:41:14;12.00;99.90
21811;DHT22;11067;48.788;9.208;2022-10-31T00:43:40;11.90;99.90
21811;DHT22;11067;48.788;9.208;2022-10-31T00:46:06;11.90;99.90
21811;DHT22;11067;48.788;9.208;2022-10-31T00:48:31;11.80;99.90
21811;DHT22;11067;48.788;9.208;2022-10-31T00:50:57;11.80;99.90
21811;DHT22;11067;48.788;9.208;2022-10-31T00:53:22;11.80;99.90
21811;DHT22;11067;48.788;9.208;2022-10-31T00:55:48;11.70;99.90
21811;DHT22;11067;48.788;9.208;2022-10-31T00:58:14;11.80;99.90
21811;DHT22;11067;48.788;9.208;2022-10-31T01:00:40;11.80;99.90
21811;DHT22;11067;48.788;9.208;2022-10-31T01:03:05;11.80;99.90
21811;DHT22;11067;48.788;9.208;2022-10-31T01:05:31;11.90;99.90
21811;DHT22;11067;48.788;9.208;2022-10-31T01:07:56;11.90;99.90
21811;DHT22;11067;48.788;9.208;2022-10-31T01:10:22;11.90;99.90
21811;DHT22;11067;48.788;9.208;2022-10-31T01:12:49;11.80;99.90
21811;DHT22;11067;48.788;9.208;2022-10-31T01:15:17;11.70;99.90
21811;DHT22;11067;48.788;9.208;2022-10-31T01:17:43;11.70;99.90
21811;DHT22;11067;48.788;9.208;2022-10-31T01:20:09;11.70;99.90
21811;DHT22;11067;48.788;9.208;2022-10-31T01:22:35;11.70;99.90
21811;DHT22;11067;48.788;9.208;2022-10-31T01:25:01;11.70;99.90
21811;DHT22;11067;48.788;9.208;2022-10-31T01:27:27;11.60;99.90
21811;DHT22;11067;48.788;9.208;2022-10-31T01:29:52;11.60;99.90
21811;DHT22;11067;48.788;9.208;2022-10-31T01:32:18;11.60;99.90
21811;DHT22;11067;48.788;9.208;2022-10-31T01:34:43;11.60;99.90
21811;DHT22;11067;48.788;9.208;2022-10-31T01:37:09;11.60;99.90
21811;DHT22;11067;48.788;9.208;2022-10-31T01:39:34;11.60;99.90
21811;DHT22;11067;48.788;9.208;2022-10-31T01:42:00;11.60;99.90
21811;DHT22;11067;48.788;9.208;2022-10-31T01:47:04;11.70;99.90
21811;DHT22;11067;48.788;9.208;2022-10-31T01:49:43;11.60;99.90
21811;DHT22;11067;48.788;9.208;2022-10-31T01:55:09;11.60;99.90
21811;DHT22;11067;48.788;9.208;2022-10-31T01:57:37;11.50;99.90
21811;DHT22;11067;48.788;9.208;2022-10-31T02:00:08;11.60;99.90
21811;DHT22;11067;48.788;9.208;2022-10-31T02:02:34;11.60;99.90
21811;DHT22;11067;48.788;9.208;2022-10-31T02:05:02;11.60;99.90
21811;DHT22;11067;48.788;9.208;2022-10-31T02:07:52;11.70;99.90
21811;DHT22;11067;48.788;9.208;2022-10-31T02:10:23;11.70;99.90
21811;DHT22;11067;48.788;9.208;2022-10-31T02:12:51;11.70;99.90
21811;DHT22;11067;48.788;9.208;2022-10-31T02:15:19;11.60;99.90
21811;DHT22;11067;48.788;9.208;2022-10-31T02:17:44;11.60;99.90
21811;DHT22;11067;48.788;9.208;2022-10-31T02:20:19;11.60;99.90
21811;DHT22;11067;48.788;9.208;2022-10-31T02:23:04;11.50;99.90
21811;DHT22;11067;48.788;9.208;2022-10-31T02:43:11;11.50;99.90
21811;DHT22;11067;48.788;9.208;2022-10-31T02:48:18;11.50;99.90
21811;DHT22;11067;48.788;9.208;2022-10-31T02:50:51;11.50;99.90
21811;DHT22;11067;48.788;9.208;2022-10-31T02:53:17;11.40;99.90
21811;DHT22;11067;48.788;9.208;2022-10-31T02:55:59;11.40;99.90
21811;DHT22;11067;48.788;9.208;2022-10-31T02:58:28;11.30;99.90
21811;DHT22;11067;48.788;9.208;2022-10-31T03:01:18;11.30;99.90
21811;DHT22;11067;48.788;9.208;2022-10-31T03:04:16;11.30;99.90
21811;DHT22;11067;48.788;9.208;2022-10-31T03:12:30;11.20;99.90
21811;DHT22;11067;48.788;9.208;2022-10-31T03:15:14;11.20;99.90
21811;DHT22;11067;48.788;9.208;2022-10-31T03:17:53;11.20;99.90
21811;DHT22;11067;48.788;9.208;2022-10-31T03:21:10;11.20;99.90
21811;DHT22;11067;48.788;9.208;2022-10-31T03:23:13;11.30;99.90
21811;DHT22;11067;48.788;9.208;2022-10-31T03:25:40;11.30;99.90
21811;DHT22;11067;48.788;9.208;2022-10-31T03:28:07;11.40;99.90
21811;DHT22;11067;48.788;9.208;2022-10-31T03:30:35;11.30;99.90
21811;DHT22;11067;48.788;9.208;2022-10-31T03:33:06;11.30;99.90
21811;DHT22;11067;48.788;9.208;2022-10-31T03:35:35;11.40;99.90
21811;DHT22;11067;48.788;9.208;2022-10-31T03:38:02;11.50;99.90
21811;DHT22;11067;48.788;9.208;2022-10-31T03:40:29;11.50;99.90
21811;DHT22;11067;48.788;9.208;2022-10-31T03:42:59;11.50;99.90
21811;DHT22;11067;48.788;9.208;2022-10-31T03:45:30;11.50;99.90
21811;DHT22;11067;48.788;9.208;2022-10-31T03:47:57;11.40;99.90
21811;DHT22;11067;48.788;9.208;2022-10-31T03:50:26;11.30;99.90
21811;DHT22;11067;48.788;9.208;2022-10-31T03:53:01;11.20;99.90
21811;DHT22;11067;48.788;9.208;2022-10-31T03:55:40;11.20;99.90
21811;DHT22;11067;48.788;9.208;2022-10-31T03:58:18;11.20;99.90
21811;DHT22;11067;48.788;9.208;2022-10-31T04:00:46;11.10;99.90
21811;DHT22;11067;48.788;9.208;2022-10-31T04:03:17;11.10;99.90
21811;DHT22;11067;48.788;9.208;2022-10-31T04:05:46;11.00;99.90
21811;DHT22;11067;48.788;9.208;2022-10-31T04:08:16;11.00;99.90
21811;DHT22;11067;48.788;9.208;2022-10-31T04:10:44;11.00;99.90
21811;DHT22;11067;48.788;9.208;2022-10-31T04:13:14;11.00;99.90
21811;DHT22;11067;48.788;9.208;2022-10-31T04:15:42;11.10;99.90
21811;DHT22;11067;48.788;9.208;2022-10-31T04:18:08;11.10;99.90
21811;DHT22;11067;48.788;9.208;2022-10-31T04:20:37;11.00;99.90
21811;DHT22;11067;48.788;9.208;2022-10-31T04:23:03;10.90;99.90
21811;DHT22;11067;48.788;9.208;2022-10-31T04:25:29;10.90;99.90
21811;DHT22;11067;48.788;9.208;2022-10-31T04:27:55;10.90;99.90
21811;DHT22;11067;48.788;9.208;2022-10-31T04:30:21;10.90;99.90
21811;DHT22;11067;48.788;9.208;2022-10-31T04:32:47;10.90;99.90
21811;DHT22;11067;48.788;9.208;2022-10-31T04:35:12;10.80;99.90
21811;DHT22;11067;48.788;9.208;2022-10-31T04:37:38;10.70;99.90
21811;DHT22;11067;48.788;9.208;2022-10-31T04:40:04;10.70;99.90
21811;DHT22;11067;48.788;9.208;2022-10-31T04:42:30;10.70;99.90
21811;DHT22;11067;48.788;9.208;2022-10-31T04:44:56;10.60;99.90
21811;DHT22;11067;48.788;9.208;2022-10-31T04:47:21;10.60;99.90
21811;DHT22;11067;48.788;9.208;2022-10-31T04:49:47;10.60;99.90
21811;DHT22;11067;48.788;9.208;2022-10-31T04:52:13;10.60;99.90
21811;DHT22;11067;48.788;9.208;2022-10-31T04:54:38;10.50;99.90
21811;DHT22;11067;48.788;9.208;2022-10-31T04:57:04;10.50;99.90
21811;DHT22;11067;48.788;9.208;2022-10-31T04:59:30;10.50;99.90
21811;DHT22;11067;48.788;9.208;2022-10-31T05:01:55;10.50;99.90
21811;DHT22;11067;48.788;9.208;2022-10-31T05:04:21;10.50;99.90
21811;DHT22;11067;48.788;9.208;2022-10-31T05:06:46;10.50;99.90
21811;DHT22;11067;48.788;9.208;2022-10-31T05:09:12;10.50;99.90
21811;DHT22;11067;48.788;9.208;2022-10-31T05:11:37;10.60;99.90
21811;DHT22;11067;48.788;9.208;2022-10-31T05:14:03;10.50;99.90
21811;DHT22;11067;48.788;9.208;2022-10-31T05:16:28;10.60;99.90
21811;DHT22;11067;48.788;9.208;2022-10-31T05:18:54;10.50;99.90
21811;DHT22;11067;48.788;9.208;2022-10-31T05:21:19;10.50;99.90
21811;DHT22;11067;48.788;9.208;2022-10-31T05:23:45;10.50;99.90
21811;DHT22;11067;48.788;9.208;2022-10-31T05:26:10;10.40;99.90
21811;DHT22;11067;48.788;9.208;2022-10-31T05:28:36;10.40;99.90
21811;DHT22;11067;48.788;9.208;2022-10-31T05:31:02;10.50;99.90
21811;DHT22;11067;48.788;9.208;2022-10-31T05:33:27;10.50;99.90
21811;DHT22;11067;48.788;9.208;2022-10-31T05:35:53;10.40;99.90
21811;DHT22;11067;48.788;9.208;2022-10-31T05:38:18;10.50;99.90
21811;DHT22;11067;48.788;9.208;2022-10-31T05:40:44;10.40;99.90
21811;DHT22;11067;48.788;9.208;2022-10-31T05:43:09;10.40;99.90
21811;DHT22;11067;48.788;9.208;2022-10-31T05:45:35;10.40;99.90
21811;DHT22;11067;48.788;9.208;2022-10-31T05:48:01;10.40;99.90
21811;DHT22;11067;48.788;9.208;2022-10-31T05:50:30;10.50;99.90
21811;DHT22;11067;48.788;9.208;2022-10-31T05:52:57;10.30;99.90
21811;DHT22;11067;48.788;9.208;2022-10-31T05:55:23;10.20;99.90
21811;DHT22;11067;48.788;9.208;2022-10-31T05:57:48;10.20;99.90
21811;DHT22;11067;48.788;9.208;2022-10-31T06:00:14;10.30;99.90
21811;DHT22;11067;48.788;9.208;2022-10-31T06:02:39;10.30;99.90
21811;DHT22;11067;48.788;9.208;2022-10-31T06:05:05;10.30;99.90
21811;DHT22;11067;48.788;9.208;2022-10-31T06:07:37;10.30;99.90
21811;DHT22;11067;48.788;9.208;2022-10-31T06:10:05;10.30;99.90
21811;DHT22;11067;48.788;9.208;2022-10-31T06:12:31;10.30;99.90
21811;DHT22;11067;48.788;9.208;2022-10-31T06:14:57;10.30;99.90
21811;DHT22;11067;48.788;9.208;2022-10-31T06:17:22;10.30;99.90
21811;DHT22;11067;48.788;9.208;2022-10-31T06:19:48;10.20;99.90
21811;DHT22;11067;48.788;9.208;2022-10-31T06:22:14;10.20;99.90
21811;DHT22;11067;48.788;9.208;2022-10-31T06:24:39;10.20;99.90
21811;DHT22;11067;48.788;9.208;2022-10-31T06:27:05;10.20;99.90
21811;DHT22;11067;48.788;9.208;2022-10-31T06:29:31;10.30;99.90
21811;DHT22;11067;48.788;9.208;2022-10-31T06:31:56;10.30;99.90
21811;DHT22;11067;48.788;9.208;2022-10-31T06:34:22;10.20;99.90
21811;DHT22;11067;48.788;9.208;2022-10-31T06:36:47;10.30;99.90
21811;DHT22;11067;48.788;9.208;2022-10-31T06:39:13;10.30;99.90
21811;DHT22;11067;48.788;9.208;2022-10-31T06:41:39;10.30;99.90
21811;DHT22;11067;48.788;9.208;2022-10-31T06:44:07;10.40;99.90
21811;DHT22;11067;48.788;9.208;2022-10-31T06:46:33;10.50;99.90
21811;DHT22;11067;48.788;9.208;2022-10-31T06:48:59;10.60;99.90
21811;DHT22;11067;48.788;9.208;2022-10-31T06:51:24;10.70;99.90
21811;DHT22;11067;48.788;9.208;2022-10-31T06:53:50;10.70;99.90
21811;DHT22;11067;48.788;9.208;2022-10-31T06:56:16;10.80;99.90
21811;DHT22;11067;48.788;9.208;2022-10-31T06:58:43;10.80;99.90
21811;DHT22;11067;48.788;9.208;2022-10-31T07:01:09;10.80;99.90
21811;DHT22;11067;48.788;9.208;2022-10-31T07:03:34;10.90;99.90
21811;DHT22;11067;48.788;9.208;2022-10-31T07:06:00;10.80;99.90
21811;DHT22;11067;48.788;9.208;2022-10-31T07:08:25;10.80;99.90
21811;DHT22;11067;48.788;9.208;2022-10-31T07:10:53;10.80;99.90
21811;DHT22;11067;48.788;9.208;2022-10-31T07:13:19;10.90;99.90
21811;DHT22;11067;48.788;9.208;2022-10-31T07:15:50;10.80;99.90
21811;DHT22;11067;48.788;9.208;2022-10-31T07:18:15;10.90;99.90
21811;DHT22;11067;48.788;9.208;2022-10-31T07:20:41;10.90;99.90
21811;DHT22;11067;48.788;9.208;2022-10-31T07:23:09;10.90;99.90
21811;DHT22;11067;48.788;9.208;2022-10-31T07:25:35;11.00;99.90
21811;DHT22;11067;48.788;9.208;2022-10-31T07:28:01;11.00;99.90
21811;DHT22;11067;48.788;9.208;2022-10-31T07:30:26;11.00;99.90
21811;DHT22;11067;48.788;9.208;2022-10-31T07:32:52;11.00;99.90
21811;DHT22;11067;48.788;9.208;2022-10-31T07:35:20;11.10;99.90
21811;DHT22;11067;48.788;9.208;2022-10-31T07:37:47;11.10;99.90
21811;DHT22;11067;48.788;9.208;2022-10-31T07:40:13;11.20;99.90
21811;DHT22;11067;48.788;9.208;2022-10-31T07:42:43;11.20;99.90
21811;DHT22;11067;48.788;9.208;2022-10-31T07:45:11;11.20;99.90
21811;DHT22;11067;48.788;9.208;2022-10-31T07:47:50;11.30;99.90
21811;DHT22;11067;48.788;9.208;2022-10-31T07:50:21;11.30;99.90
21811;DHT22;11067;48.788;9.208;2022-10-31T07:52:47;11.40;99.90
21811;DHT22;11067;48.788;9.208;2022-10-31T07:55:13;11.40;99.90
21811;DHT22;11067;48.788;9.208;2022-10-31T07:57:39;11.60;99.90
21811;DHT22;11067;48.788;9.208;2022-10-31T08:00:08;11.60;99.90
21811;DHT22;11067;48.788;9.208;2022-10-31T08:02:34;11.60;99.90
21811;DHT22;11067;48.788;9.208;2022-10-31T08:04:59;11.60;99.90
21811;DHT22;11067;48.788;9.208;2022-10-31T08:07:27;11.70;99.90
21811;DHT22;11067;48.788;9.208;2022-10-31T08:09:53;11.80;99.90
21811;DHT22;11067;48.788;9.208;2022-10-31T08:12:19;11.80;99.90
21811;DHT22;11067;48.788;9.208;2022-10-31T08:14:45;11.80;99.90
21811;DHT22;11067;48.788;9.208;2022-10-31T08:17:11;11.90;99.90
21811;DHT22;11067;48.788;9.208;2022-10-31T08:19:36;12.00;99.90
21811;DHT22;11067;48.788;9.208;2022-10-31T08:22:02;11.90;99.90
21811;DHT22;11067;48.788;9.208;2022-10-31T08:24:28;11.90;99.90
21811;DHT22;11067;48.788;9.208;2022-10-31T08:26:53;11.90;99.90
21811;DHT22;11067;48.788;9.208;2022-10-31T08:29:19;12.00;99.90
21811;DHT22;11067;48.788;9.208;2022-10-31T08:31:44;12.00;99.90
21811;DHT22;11067;48.788;9.208;2022-10-31T08:34:10;12.00;99.90
21811;DHT22;11067;48.788;9.208;2022-10-31T08:36:35;12.10;99.90
21811;DHT22;11067;48.788;9.208;2022-10-31T08:39:01;12.10;99.90
21811;DHT22;11067;48.788;9.208;2022-10-31T08:41:28;12.00;99.90
21811;DHT22;11067;48.788;9.208;2022-10-31T08:43:53;12.00;99.90
21811;DHT22;11067;48.788;9.208;2022-10-31T08:46:19;11.90;99.90
21811;DHT22;11067;48.788;9.208;2022-10-31T08:48:47;12.00;99.90
21811;DHT22;11067;48.788;9.208;2022-10-31T08:51:13;12.20;99.90
21811;DHT22;11067;48.788;9.208;2022-10-31T08:53:38;12.10;99.90
21811;DHT22;11067;48.788;9.208;2022-10-31T08:56:04;12.30;99.90
21811;DHT22;11067;48.788;9.208;2022-10-31T08:58:30;12.50;99.90
21811;DHT22;11067;48.788;9.208;2022-10-31T09:00:55;12.50;99.90
21811;DHT22;11067;48.788;9.208;2022-10-31T09:03:29;12.50;99.90
21811;DHT22;11067;48.788;9.208;2022-10-31T09:05:56;12.50;99.90
21811;DHT22;11067;48.788;9.208;2022-10-31T09:08:22;12.60;99.90
21811;DHT22;11067;48.788;9.208;2022-10-31T09:10:48;12.70;99.90
21811;DHT22;11067;48.788;9.208;2022-10-31T09:13:17;12.90;99.90
21811;DHT22;11067;48.788;9.208;2022-10-31T09:15:44;12.80;99.90
21811;DHT22;11067;48.788;9.208;2022-10-31T09:18:11;13.00;99.90
21811;DHT22;11067;48.788;9.208;2022-10-31T09:20:38;13.10;99.90
21811;DHT22;11067;48.788;9.208;2022-10-31T09:23:07;13.20;99.90
21811;DHT22;11067;48.788;9.208;2022-10-31T09:25:34;13.30;99.90
21811;DHT22;11067;48.788;9.208;2022-10-31T09:28:01;13.30;99.90
21811;DHT22;11067;48.788;9.208;2022-10-31T09:30:28;13.50;99.90
21811;DHT22;11067;48.788;9.208;2022-10-31T09:32:56;13.50;99.90
21811;DHT22;11067;48.788;9.208;2022-10-31T09:35:22;13.40;99.90
21811;DHT22;11067;48.788;9.208;2022-10-31T09:37:53;13.40;99.90
21811;DHT22;11067;48.788;9.208;2022-10-31T09:40:18;13.40;99.90
21811;DHT22;11067;48.788;9.208;2022-10-31T09:43:01;13.40;99.90
21811;DHT22;11067;48.788;9.208;2022-10-31T09:51:05;13.70;99.90
21811;DHT22;11067;48.788;9.208;2022-10-31T09:53:46;13.80;99.90
21811;DHT22;11067;48.788;9.208;2022-10-31T09:56:17;13.60;99.90
21811;DHT22;11067;48.788;9.208;2022-10-31T09:58:46;13.80;99.90
21811;DHT22;11067;48.788;9.208;2022-10-31T10:03:57;14.00;99.90
21811;DHT22;11067;48.788;9.208;2022-10-31T10:06:27;14.10;99.90
21811;DHT22;11067;48.788;9.208;2022-10-31T10:08:55;14.10;99.90
21811;DHT22;11067;48.788;9.208;2022-10-31T10:14:28;14.40;99.90
21811;DHT22;11067;48.788;9.208;2022-10-31T10:17:32;14.20;99.90
21811;DHT22;11067;48.788;9.208;2022-10-31T10:20:31;14.30;99.90
21811;DHT22;11067;48.788;9.208;2022-10-31T10:26:03;14.30;99.90
21811;DHT22;11067;48.788;9.208;2022-10-31T10:28:33;14.50;99.90
21811;DHT22;11067;48.788;9.208;2022-10-31T10:31:11;14.60;99.90
21811;DHT22;11067;48.788;9.208;2022-10-31T10:33:44;14.60;99.90
21811;DHT22;11067;48.788;9.208;2022-10-31T10:36:16;14.70;99.90
21811;DHT22;11067;48.788;9.208;2022-10-31T10:38:59;14.60;99.90
21811;DHT22;11067;48.788;9.208;2022-10-31T10:41:31;14.70;99.90
21811;DHT22;11067;48.788;9.208;2022-10-31T10:43:56;14.80;99.90
21811;DHT22;11067;48.788;9.208;2022-10-31T10:46:42;15.00;99.90
21811;DHT22;11067;48.788;9.208;2022-10-31T10:49:50;15.10;99.90
21811;DHT22;11067;48.788;9.208;2022-10-31T10:55:14;15.20;99.90
21811;DHT22;11067;48.788;9.208;2022-10-31T10:57:55;15.30;99.90
21811;DHT22;11067;48.788;9.208;2022-10-31T11:00:23;15.40;99.90
21811;DHT22;11067;48.788;9.208;2022-10-31T11:02:50;15.40;99.90
21811;DHT22;11067;48.788;9.208;2022-10-31T11:05:30;15.40;99.90
21811;DHT22;11067;48.788;9.208;2022-10-31T11:07:58;15.50;99.90
21811;DHT22;11067;48.788;9.208;2022-10-31T11:10:23;15.60;99.90
21811;DHT22;11067;48.788;9.208;2022-10-31T11:13:24;15.50;99.90
21811;DHT22;11067;48.788;9.208;2022-10-31T11:18:52;15.70;99.90
21811;DHT22;11067;48.788;9.208;2022-10-31T11:21:29;15.70;99.90
21811;DHT22;11067;48.788;9.208;2022-10-31T11:26:37;15.80;99.90
21811;DHT22;11067;48.788;9.208;2022-10-31T11:29:04;16.10;99.90
21811;DHT22;11067;48.788;9.208;2022-10-31T11:31:31;16.30;99.90
21811;DHT22;11067;48.788;9.208;2022-10-31T11:33:59;16.40;99.90
21811;DHT22;11067;48.788;9.208;2022-10-31T11:36:30;16.40;99.90
21811;DHT22;11067;48.788;9.208;2022-10-31T11:38:57;16.30;99.90
21811;DHT22;11067;48.788;9.208;2022-10-31T11:41:33;16.40;99.90
21811;DHT22;11067;48.788;9.208;2022-10-31T11:44:11;16.20;99.90
21811;DHT22;11067;48.788;9.208;2022-10-31T11:46:43;16.40;99.90
21811;DHT22;11067;48.788;9.208;2022-10-31T11:54:58;16.80;99.90
21811;DHT22;11067;48.788;9.208;2022-10-31T11:57:43;16.80;99.90
21811;DHT22;11067;48.788;9.208;2022-10-31T12:00:23;16.90;99.90
21811;DHT22;11067;48.788;9.208;2022-10-31T12:02:49;17.00;99.90
21811;DHT22;11067;48.788;9.208;2022-10-31T12:05:21;17.00;99.90
21811;DHT22;11067;48.788;9.208;2022-10-31T12:07:48;17.30;99.90
21811;DHT22;11067;48.788;9.208;2022-10-31T12:10:14;17.20;99.90
21811;DHT22;11067;48.788;9.208;2022-10-31T12:13:03;17.00;99.90
21811;DHT22;11067;48.788;9.208;2022-10-31T12:15:35;17.20;99.90
21811;DHT22;11067;48.788;9.208;2022-10-31T12:21:00;17.20;99.90
21811;DHT22;11067;48.788;9.208;2022-10-31T12:23:38;17.50;99.90
21811;DHT22;11067;48.788;9.208;2022-10-31T12:26:22;17.40;99.90
21811;DHT22;11067;48.788;9.208;2022-10-31T12:37:44;17.70;99.90
21811;DHT22;11067;48.788;9.208;2022-10-31T12:46:00;17.60;99.90
21811;DHT22;11067;48.788;9.208;2022-10-31T12:54:45;17.50;99.90
21811;DHT22;11067;48.788;9.208;2022-10-31T12:57:28;17.70;99.90
21811;DHT22;11067;48.788;9.208;2022-10-31T13:00:04;17.70;99.90
21811;DHT22;11067;48.788;9.208;2022-10-31T13:02:50;17.80;99.90
21811;DHT22;11067;48.788;9.208;2022-10-31T13:05:43;17.70;99.90
21811;DHT22;11067;48.788;9.208;2022-10-31T13:08:20;17.60;99.90
21811;DHT22;11067;48.788;9.208;2022-10-31T13:10:55;17.60;99.90
21811;DHT22;11067;48.788;9.208;2022-10-31T13:13:31;17.60;99.90
21811;DHT22;11067;48.788;9.208;2022-10-31T13:16:02;17.50;99.90
21811;DHT22;11067;48.788;9.208;2022-10-31T13:18:35;17.60;99.90
21811;DHT22;11067;48.788;9.208;2022-10-31T13:21:15;17.80;99.90
21811;DHT22;11067;48.788;9.208;2022-10-31T13:23:44;17.70;99.90
21811;DHT22;11067;48.788;9.208;2022-10-31T13:29:08;17.80;99.90
21811;DHT22;11067;48.788;9.208;2022-10-31T13:31:34;17.70;99.90
21811;DHT22;11067;48.788;9.208;2022-10-31T13:34:07;17.60;99.90
21811;DHT22;11067;48.788;9.208;2022-10-31T13:39:15;17.70;99.90
21811;DHT22;11067;48.788;9.208;2022-10-31T13:42:15;17.80;99.90
21811;DHT22;11067;48.788;9.208;2022-10-31T13:44:43;17.80;99.90
21811;DHT22;11067;48.788;9.208;2022-10-31T13:47:26;18.00;99.90
21811;DHT22;11067;48.788;9.208;2022-10-31T13:50:54;18.20;99.90
21811;DHT22;11067;48.788;9.208;2022-10-31T13:52:49;18.30;99.90
21811;DHT22;11067;48.788;9.208;2022-10-31T13:58:26;18.10;99.90
21811;DHT22;11067;48.788;9.208;2022-10-31T14:01:12;18.10;99.90
21811;DHT22;11067;48.788;9.208;2022-10-31T14:03:40;18.10;99.90
21811;DHT22;11067;48.788;9.208;2022-10-31T14:06:08;18.10;99.90
21811;DHT22;11067;48.788;9.208;2022-10-31T14:08:36;18.00;99.90
21811;DHT22;11067;48.788;9.208;2022-10-31T14:11:03;18.00;99.90
21811;DHT22;11067;48.788;9.208;2022-10-31T14:13:34;18.00;99.90
21811;DHT22;11067;48.788;9.208;2022-10-31T14:16:16;18.00;99.90
21811;DHT22;11067;48.788;9.208;2022-10-31T14:18:46;18.00;99.90
21811;DHT22;11067;48.788;9.208;2022-10-31T14:21:29;18.00;99.90
21811;DHT22;11067;48.788;9.208;2022-10-31T14:23:56;18.10;99.90
21811;DHT22;11067;48.788;9.208;2022-10-31T14:28:58;18.00;99.90
21811;DHT22;11067;48.788;9.208;2022-10-31T14:34:02;18.00;99.90
21811;DHT22;11067;48.788;9.208;2022-10-31T14:36:39;18.00;99.90
21811;DHT22;11067;48.788;9.208;2022-10-31T14:42:00;17.90;99.90
21811;DHT22;11067;48.788;9.208;2022-10-31T14:44:35;17.90;99.90
21811;DHT22;11067;48.788;9.208;2022-10-31T14:50:09;17.90;99.90
21811;DHT22;11067;48.788;9.208;2022-10-31T14:52:38;17.90;99.90
21811;DHT22;11067;48.788;9.208;2022-10-31T14:55:07;17.80;99.90
21811;DHT22;11067;48.788;9.208;2022-10-31T14:57:36;17.80;99.90
21811;DHT22;11067;48.788;9.208;2022-10-31T15:00:07;17.80;99.90
21811;DHT22;11067;48.788;9.208;2022-10-31T15:02:41;17.80;99.90
21811;DHT22;11067;48.788;9.208;2022-10-31T15:05:10;17.70;99.90
21811;DHT22;11067;48.788;9.208;2022-10-31T15:07:47;17.60;99.90
21811;DHT22;11067;48.788;9.208;2022-10-31T15:10:33;17.60;99.90
21811;DHT22;11067;48.788;9.208;2022-10-31T15:13:19;17.60;99.90
21811;DHT22;11067;48.788;9.208;2022-10-31T15:15:46;17.60;99.90
21811;DHT22;11067;48.788;9.208;2022-10-31T15:18:24;17.50;99.90
21811;DHT22;11067;48.788;9.208;2022-10-31T15:20:51;17.60;99.90
21811;DHT22;11067;48.788;9.208;2022-10-31T15:23:27;17.50;99.90
21811;DHT22;11067;48.788;9.208;2022-10-31T15:26:00;17.50;99.90
21811;DHT22;11067;48.788;9.208;2022-10-31T15:28:26;17.40;99.90
21811;DHT22;11067;48.788;9.208;2022-10-31T15:30:54;17.30;99.90
21811;DHT22;11067;48.788;9.208;2022-10-31T15:33:23;17.20;99.90
21811;DHT22;11067;48.788;9.208;2022-10-31T15:36:00;17.20;99.90
21811;DHT22;11067;48.788;9.208;2022-10-31T15:38:27;17.10;99.90
21811;DHT22;11067;48.788;9.208;2022-10-31T15:43:23;16.90;99.90
21811;DHT22;11067;48.788;9.208;2022-10-31T15:45:49;16.80;99.90
21811;DHT22;11067;48.788;9.208;2022-10-31T15:48:18;16.70;99.90
21811;DHT22;11067;48.788;9.208;2022-10-31T15:50:55;16.70;99.90
21811;DHT22;11067;48.788;9.208;2022-10-31T15:53:33;16.60;99.90
21811;DHT22;11067;48.788;9.208;2022-10-31T15:56:05;16.40;99.90
21811;DHT22;11067;48.788;9.208;2022-10-31T15:58:33;16.20;99.90
21811;DHT22;11067;48.788;9.208;2022-10-31T16:01:18;16.20;99.90
21811;DHT22;11067;48.788;9.208;2022-10-31T16:03:43;16.20;99.90
21811;DHT22;11067;48.788;9.208;2022-10-31T16:06:21;16.10;99.90
21811;DHT22;11067;48.788;9.208;2022-10-31T16:08:48;16.10;99.90
21811;DHT22;11067;48.788;9.208;2022-10-31T16:11:41;16.10;99.90
21811;DHT22;11067;48.788;9.208;2022-10-31T16:14:16;16.10;99.90
21811;DHT22;11067;48.788;9.208;2022-10-31T16:16:50;16.00;99.90
21811;DHT22;11067;48.788;9.208;2022-10-31T16:19:23;15.90;99.90
21811;DHT22;11067;48.788;9.208;2022-10-31T16:21:54;15.80;99.90
21811;DHT22;11067;48.788;9.208;2022-10-31T16:24:27;15.90;99.90
21811;DHT22;11067;48.788;9.208;2022-10-31T16:27:05;15.90;99.90
21811;DHT22;11067;48.788;9.208;2022-10-31T16:29:39;15.80;99.90
21811;DHT22;11067;48.788;9.208;2022-10-31T16:32:22;15.80;99.90
21811;DHT22;11067;48.788;9.208;2022-10-31T16:34:58;15.70;99.90
21811;DHT22;11067;48.788;9.208;2022-10-31T16:37:23;15.50;99.90
21811;DHT22;11067;48.788;9.208;2022-10-31T16:39:49;15.40;99.90
21811;DHT22;11067;48.788;9.208;2022-10-31T16:42:14;15.40;99.90
21811;DHT22;11067;48.788;9.208;2022-10-31T16:44:40;15.30;99.90
21811;DHT22;11067;48.788;9.208;2022-10-31T16:47:13;15.40;99.90
21811;DHT22;11067;48.788;9.208;2022-10-31T16:49:39;15.30;99.90
21811;DHT22;11067;48.788;9.208;2022-10-31T16:52:04;15.30;99.90
21811;DHT22;11067;48.788;9.208;2022-10-31T16:54:30;15.20;99.90
21811;DHT22;11067;48.788;9.208;2022-10-31T16:56:58;15.00;99.90
21811;DHT22;11067;48.788;9.208;2022-10-31T16:59:24;15.00;99.90
21811;DHT22;11067;48.788;9.208;2022-10-31T17:01:49;15.00;99.90
21811;DHT22;11067;48.788;9.208;2022-10-31T17:04:15;15.00;99.90
21811;DHT22;11067;48.788;9.208;2022-10-31T17:06:41;14.90;99.90
21811;DHT22;11067;48.788;9.208;2022-10-31T17:09:07;14.90;99.90
21811;DHT22;11067;48.788;9.208;2022-10-31T17:11:33;14.80;99.90
21811;DHT22;11067;48.788;9.208;2022-10-31T17:13:59;14.70;99.90
21811;DHT22;11067;48.788;9.208;2022-10-31T17:16:25;14.60;99.90
21811;DHT22;11067;48.788;9.208;2022-10-31T17:18:51;14.60;99.90
21811;DHT22;11067;48.788;9.208;2022-10-31T17:21:21;14.60;99.90
21811;DHT22;11067;48.788;9.208;2022-10-31T17:23:48;14.50;99.90
21811;DHT22;11067;48.788;9.208;2022-10-31T17:26:14;14.40;99.90
21811;DHT22;11067;48.788;9.208;2022-10-31T17:28:40;14.30;99.90
21811;DHT22;11067;48.788;9.208;2022-10-31T17:31:06;14.30;99.90
21811;DHT22;11067;48.788;9.208;2022-10-31T17:33:36;14.20;99.90